Time;durP1;ratioP1;P1;durP2;ratioP2;P2;SDS_P1;SDS_P2;PMS_P1;PMS_P2;Temp;Humidity;BMP_temperature;BMP_pressure;BME280_temperature;BME280_humidity;BME280_pressure;Samples;Min_cycle;Max_cycle;Signal;HPM_P1;HPM_P2
2022/03/05 00:00:26;;;;;;;31.33;15.88;;;2.30;67.10;;;;;;4998924;28;20916;-79
2022/03/05 00:02:54;;;;;;;35.25;16.38;;;2.20;67.20;;;;;;5000886;28;20226;-80
2022/03/05 00:05:22;;;;;;;37.60;16.40;;;2.20;67.30;;;;;;4988004;28;20214;-79
2022/03/05 00:07:50;;;;;;;33.45;17.85;;;2.20;67.40;;;;;;5002394;28;20661;-79
2022/03/05 00:10:19;;;;;;;39.75;17.63;;;2.30;67.50;;;;;;4988377;28;20256;-80
2022/03/05 00:12:49;;;;;;;40.80;17.15;;;2.30;67.50;;;;;;5003528;28;20217;-80
2022/03/05 00:15:17;;;;;;;34.65;18.80;;;2.30;67.50;;;;;;5003296;28;20347;-79
2022/03/05 00:17:47;;;;;;;33.42;16.88;;;2.30;67.30;;;;;;5003371;28;20226;-80
2022/03/05 00:20:15;;;;;;;35.33;18.63;;;2.20;67.50;;;;;;4988182;28;20241;-80
2022/03/05 00:22:43;;;;;;;37.03;18.20;;;2.20;67.60;;;;;;4986185;28;20203;-79
2022/03/05 00:25:11;;;;;;;37.72;16.98;;;2.20;67.60;;;;;;5002164;28;20206;-79
2022/03/05 00:27:40;;;;;;;33.58;16.00;;;2.20;67.60;;;;;;4986602;28;20777;-79
2022/03/05 00:30:10;;;;;;;34.42;17.27;;;2.20;67.60;;;;;;4986038;28;20199;-79
2022/03/05 00:32:38;;;;;;;35.83;18.23;;;2.20;67.80;;;;;;4985693;28;20203;-79
2022/03/05 00:35:08;;;;;;;34.35;16.20;;;2.30;67.80;;;;;;4988437;28;20209;-79
2022/03/05 00:37:36;;;;;;;39.05;17.83;;;2.30;67.60;;;;;;4984303;28;20747;-81
2022/03/05 00:40:05;;;;;;;33.40;16.33;;;2.20;67.60;;;;;;5001396;28;20206;-78
2022/03/05 00:42:35;;;;;;;37.38;16.38;;;2.20;67.70;;;;;;4998822;28;20226;-79
2022/03/05 00:45:05;;;;;;;33.97;17.67;;;2.20;67.60;;;;;;4984979;28;20207;-78
2022/03/05 00:47:35;;;;;;;36.30;17.15;;;2.10;67.60;;;;;;4985046;28;20246;-78
2022/03/05 00:50:04;;;;;;;39.35;16.98;;;2.10;67.60;;;;;;5000979;28;21196;-79
2022/03/05 00:52:34;;;;;;;30.73;16.45;;;2.00;67.60;;;;;;5000010;28;20211;-79
2022/03/05 00:55:02;;;;;;;35.42;17.23;;;2.00;67.60;;;;;;5000130;28;20827;-79
2022/03/05 00:57:30;;;;;;;34.28;17.42;;;1.90;67.70;;;;;;4997911;28;20230;-79
2022/03/05 00:59:58;;;;;;;36.05;16.27;;;1.90;67.70;;;;;;4986888;28;21068;-79
2022/03/05 01:02:26;;;;;;;36.38;16.63;;;1.90;67.60;;;;;;4983493;28;20801;-79
2022/03/05 01:04:56;;;;;;;40.80;17.23;;;1.90;67.70;;;;;;4995805;28;20437;-79
2022/03/05 01:07:24;;;;;;;44.75;19.48;;;1.80;67.80;;;;;;4985182;28;20237;-79
2022/03/05 01:09:51;;;;;;;40.72;17.88;;;1.80;67.90;;;;;;5000066;28;20225;-80
2022/03/05 01:12:21;;;;;;;43.85;21.77;;;1.80;67.90;;;;;;4986220;28;20206;-79
2022/03/05 01:14:50;;;;;;;39.75;20.48;;;1.80;67.90;;;;;;4985134;28;20623;-79
2022/03/05 01:17:19;;;;;;;48.83;22.10;;;1.90;67.90;;;;;;4983108;28;20227;-79
2022/03/05 01:19:47;;;;;;;45.75;19.95;;;1.80;67.90;;;;;;5000239;28;20211;-79
2022/03/05 01:22:16;;;;;;;69.07;31.00;;;1.80;67.90;;;;;;4984443;28;20234;-79
2022/03/05 01:24:44;;;;;;;70.63;27.73;;;1.80;68.00;;;;;;4983064;28;20208;-79
2022/03/05 01:27:13;;;;;;;57.88;25.42;;;1.80;68.00;;;;;;4986661;28;20257;-79
2022/03/05 01:29:41;;;;;;;48.85;22.67;;;1.80;68.10;;;;;;4991022;28;20210;-80
2022/03/05 01:32:09;;;;;;;45.13;22.50;;;1.90;68.10;;;;;;4984223;28;20296;-79
2022/03/05 01:34:37;;;;;;;45.95;21.10;;;1.90;68.00;;;;;;4984541;28;20203;-79
2022/03/05 01:37:06;;;;;;;44.05;22.10;;;1.90;68.10;;;;;;4985093;28;20274;-78
2022/03/05 01:39:35;;;;;;;43.70;19.20;;;1.90;68.20;;;;;;4992772;28;20234;-79
2022/03/05 01:42:04;;;;;;;44.33;19.52;;;1.90;68.20;;;;;;4981347;28;20203;-80
2022/03/05 01:44:32;;;;;;;43.92;19.88;;;1.90;68.10;;;;;;4999169;28;20203;-80
2022/03/05 01:47:02;;;;;;;37.88;19.55;;;1.90;68.10;;;;;;4983119;28;20876;-80
2022/03/05 01:49:31;;;;;;;39.10;19.95;;;1.90;68.10;;;;;;4984745;28;20215;-80
2022/03/05 01:51:59;;;;;;;36.63;20.00;;;1.90;68.20;;;;;;4984383;28;20198;-80
2022/03/05 01:54:27;;;;;;;38.67;18.38;;;1.90;68.30;;;;;;4999086;28;20206;-79
2022/03/05 01:56:59;;;;;;;37.10;16.45;;;1.90;68.40;;;;;;4983532;28;20446;-80
2022/03/05 01:59:27;;;;;;;36.38;18.42;;;1.90;68.30;;;;;;4985069;28;20281;-79
2022/03/05 02:01:55;;;;;;;38.47;17.65;;;1.90;68.30;;;;;;4983681;28;20300;-80
2022/03/05 02:04:24;;;;;;;34.75;17.67;;;1.90;68.30;;;;;;4999117;28;20325;-80
2022/03/05 02:06:53;;;;;;;33.38;16.70;;;1.90;68.20;;;;;;4999445;28;20219;-80
2022/03/05 02:09:21;;;;;;;41.05;17.23;;;1.90;68.30;;;;;;4999689;28;20221;-79
2022/03/05 02:11:50;;;;;;;33.95;16.10;;;1.90;68.40;;;;;;4984537;28;20205;-80
2022/03/05 02:14:20;;;;;;;31.38;16.55;;;1.90;68.40;;;;;;4981933;28;20238;-80
2022/03/05 02:16:48;;;;;;;34.33;16.67;;;1.90;68.40;;;;;;4982784;28;20892;-81
2022/03/05 02:19:17;;;;;;;37.20;16.92;;;1.90;68.40;;;;;;4999840;28;20230;-81
2022/03/05 02:21:48;;;;;;;38.22;16.85;;;1.90;68.40;;;;;;4983323;28;20210;-80
2022/03/05 02:24:31;;;;;;;35.22;15.35;;;1.90;68.40;;;;;;4979239;28;20198;-81
2022/03/05 02:27:00;;;;;;;35.55;15.65;;;1.90;68.50;;;;;;4999048;28;20222;-79
2022/03/05 02:29:28;;;;;;;29.90;16.58;;;1.90;68.40;;;;;;4999871;28;20222;-78
2022/03/05 02:31:56;;;;;;;35.78;16.85;;;1.90;68.40;;;;;;4982961;28;20227;-78
2022/03/05 02:34:24;;;;;;;37.83;17.13;;;1.90;68.40;;;;;;4984064;28;20230;-80
2022/03/05 02:36:54;;;;;;;33.42;15.43;;;1.90;68.50;;;;;;4983363;28;20297;-81
2022/03/05 02:39:24;;;;;;;34.78;17.27;;;1.80;68.50;;;;;;4999450;28;20229;-79
2022/03/05 02:41:52;;;;;;;37.47;17.67;;;1.80;68.60;;;;;;4983619;28;20221;-79
2022/03/05 02:44:20;;;;;;;36.78;17.23;;;1.80;68.50;;;;;;4983461;28;20249;-80
2022/03/05 02:46:49;;;;;;;35.42;16.48;;;1.80;68.60;;;;;;4983688;28;20230;-80
2022/03/05 02:49:17;;;;;;;34.92;17.40;;;1.80;68.50;;;;;;4983363;28;20770;-80
2022/03/05 02:51:45;;;;;;;35.42;16.75;;;1.80;68.50;;;;;;4982951;28;20219;-80
2022/03/05 02:54:14;;;;;;;36.30;15.82;;;1.80;68.50;;;;;;4982267;28;20206;-79
2022/03/05 02:56:42;;;;;;;36.60;17.70;;;1.80;68.50;;;;;;4981928;28;20249;-80
2022/03/05 02:59:10;;;;;;;34.13;16.42;;;1.80;68.50;;;;;;4998628;28;20222;-79
2022/03/05 03:01:38;;;;;;;34.53;15.40;;;1.80;68.60;;;;;;4981706;28;20261;-79
2022/03/05 03:04:06;;;;;;;37.28;16.48;;;1.80;68.60;;;;;;4998650;28;20203;-79
2022/03/05 03:06:34;;;;;;;35.95;16.25;;;1.70;68.60;;;;;;4984736;28;20215;-81
2022/03/05 03:09:02;;;;;;;33.58;16.65;;;1.70;68.70;;;;;;4999724;28;20230;-81
2022/03/05 03:11:32;;;;;;;38.15;17.15;;;1.70;68.60;;;;;;4983690;28;20210;-79
2022/03/05 03:14:01;;;;;;;36.22;17.35;;;1.70;68.50;;;;;;4984139;28;20219;-79
2022/03/05 03:16:30;;;;;;;40.13;16.30;;;1.60;68.50;;;;;;4985584;28;20232;-79
2022/03/05 03:18:58;;;;;;;34.92;17.55;;;1.60;68.60;;;;;;5000073;28;20273;-80
2022/03/05 03:21:26;;;;;;;37.83;16.75;;;1.60;68.60;;;;;;4984777;28;20203;-80
2022/03/05 03:23:54;;;;;;;38.15;16.33;;;1.50;68.60;;;;;;4984922;28;20207;-80
2022/03/05 03:26:22;;;;;;;35.10;17.90;;;1.50;68.60;;;;;;5005400;28;20241;-80
2022/03/05 03:28:52;;;;;;;37.22;18.75;;;1.50;68.60;;;;;;4990049;28;20222;-79
2022/03/05 03:31:20;;;;;;;41.35;18.20;;;1.50;68.70;;;;;;4990973;28;20218;-80
2022/03/05 03:33:48;;;;;;;36.67;17.25;;;1.50;68.80;;;;;;4991579;28;20237;-80
2022/03/05 03:36:16;;;;;;;35.35;17.30;;;1.50;68.80;;;;;;5005618;28;20214;-80
2022/03/05 03:38:44;;;;;;;36.13;16.95;;;1.50;68.90;;;;;;4991458;28;20427;-79
2022/03/05 03:41:13;;;;;;;38.05;17.35;;;1.50;68.90;;;;;;4990684;28;20241;-80
2022/03/05 03:43:40;;;;;;;38.75;17.73;;;1.50;68.90;;;;;;5002137;28;20219;-80
2022/03/05 03:46:10;;;;;;;38.03;17.10;;;1.50;68.90;;;;;;4988492;28;20231;-80
2022/03/05 03:48:38;;;;;;;31.77;16.67;;;1.50;68.90;;;;;;4988392;28;20288;-80
2022/03/05 03:51:05;;;;;;;37.65;18.55;;;1.50;69.00;;;;;;4988299;28;20261;-80
2022/03/05 03:53:33;;;;;;;35.05;16.67;;;1.50;69.10;;;;;;4987154;28;20194;-79
2022/03/05 03:56:02;;;;;;;34.33;17.33;;;1.50;69.10;;;;;;4987087;28;20233;-80
2022/03/05 03:58:30;;;;;;;41.35;18.08;;;1.50;69.10;;;;;;4984487;28;20226;-79
2022/03/05 04:00:58;;;;;;;37.30;17.60;;;1.50;69.10;;;;;;4985271;28;20226;-78
2022/03/05 04:03:28;;;;;;;35.60;18.33;;;1.50;69.10;;;;;;4986942;28;20214;-80
2022/03/05 04:05:56;;;;;;;34.70;17.25;;;1.50;69.10;;;;;;4986847;28;20254;-80
2022/03/05 04:11:09;;;;;;;38.95;18.13;;;1.50;69.30;;;;;;4986219;28;20206;-80
2022/03/05 04:13:37;;;;;;;40.03;19.35;;;1.50;69.30;;;;;;5001440;28;20229;-79
2022/03/05 04:16:06;;;;;;;38.50;17.92;;;1.60;69.30;;;;;;4984031;28;20305;-79
2022/03/05 04:18:35;;;;;;;36.63;16.55;;;1.60;69.40;;;;;;4987002;28;20299;-80
2022/03/05 04:21:05;;;;;;;41.70;18.15;;;1.60;69.40;;;;;;4998713;28;20226;-80
2022/03/05 04:23:33;;;;;;;39.13;17.05;;;1.60;69.40;;;;;;4997179;28;20199;-80
2022/03/05 04:26:02;;;;;;;37.22;16.58;;;1.60;69.40;;;;;;4986444;28;20213;-80
2022/03/05 04:28:30;;;;;;;40.88;17.48;;;1.60;69.30;;;;;;5001789;28;20281;-80
2022/03/05 04:30:58;;;;;;;36.33;16.77;;;1.60;69.30;;;;;;4999567;28;20234;-80
2022/03/05 04:33:26;;;;;;;32.53;16.25;;;1.60;69.30;;;;;;4998805;28;20210;-80
2022/03/05 04:35:55;;;;;;;38.70;17.58;;;1.60;69.40;;;;;;4983763;28;20211;-80
2022/03/05 04:38:23;;;;;;;40.20;17.42;;;1.60;69.40;;;;;;5001686;28;20230;-80
2022/03/05 04:40:55;;;;;;;33.72;17.10;;;1.60;69.40;;;;;;4985830;28;20230;-80
2022/03/05 04:43:23;;;;;;;37.70;18.52;;;1.50;69.40;;;;;;4983571;28;20199;-80
2022/03/05 04:45:50;;;;;;;37.60;16.33;;;1.50;69.40;;;;;;4984425;28;20233;-80
2022/03/05 04:48:18;;;;;;;36.65;18.85;;;1.50;69.50;;;;;;4983999;28;20556;-80
2022/03/05 04:50:48;;;;;;;39.65;18.50;;;1.50;69.50;;;;;;4984834;28;20238;-80
2022/03/05 04:53:19;;;;;;;34.03;16.92;;;1.50;69.60;;;;;;4982790;28;20301;-80
2022/03/05 04:55:48;;;;;;;38.60;18.95;;;1.50;69.50;;;;;;4985825;28;20207;-79
2022/03/05 04:58:16;;;;;;;39.75;18.77;;;1.50;69.50;;;;;;5001233;28;20222;-79
2022/03/05 05:00:44;;;;;;;41.65;18.85;;;1.50;69.50;;;;;;4985006;28;20226;-79
2022/03/05 05:03:13;;;;;;;38.50;19.77;;;1.50;69.80;;;;;;5000025;28;20233;-80
2022/03/05 05:05:41;;;;;;;34.50;18.95;;;1.50;69.60;;;;;;4983366;28;20234;-80
2022/03/05 05:08:10;;;;;;;36.47;19.00;;;1.50;69.60;;;;;;4985509;28;20825;-79
2022/03/05 05:10:39;;;;;;;44.83;22.58;;;1.50;69.80;;;;;;4998503;28;20268;-80
2022/03/05 05:13:08;;;;;;;42.95;20.08;;;1.50;70.00;;;;;;4999775;28;20206;-79
2022/03/05 05:15:36;;;;;;;42.58;19.48;;;1.60;70.10;;;;;;4999564;28;20747;-79
2022/03/05 05:18:04;;;;;;;43.92;20.23;;;1.60;69.90;;;;;;4983620;28;20884;-79
2022/03/05 05:20:32;;;;;;;38.72;19.13;;;1.60;69.80;;;;;;4985385;28;20203;-79
2022/03/05 05:23:00;;;;;;;43.15;21.35;;;1.50;70.00;;;;;;4984596;28;20195;-79
2022/03/05 05:25:28;;;;;;;42.08;20.05;;;1.50;70.10;;;;;;4988990;28;20191;-79
2022/03/05 05:27:58;;;;;;;46.40;20.77;;;1.50;70.20;;;;;;5000004;28;20237;-79
2022/03/05 05:30:25;;;;;;;41.13;21.30;;;1.60;70.10;;;;;;4995318;28;20780;-80
2022/03/05 05:32:53;;;;;;;45.38;21.08;;;1.60;70.10;;;;;;4997617;28;20297;-79
2022/03/05 05:35:22;;;;;;;40.67;20.70;;;1.50;70.10;;;;;;4981118;28;20241;-79
2022/03/05 05:37:50;;;;;;;42.53;20.15;;;1.50;70.20;;;;;;4983292;28;20289;-79
2022/03/05 05:40:18;;;;;;;44.42;22.30;;;1.60;70.30;;;;;;4983592;28;20253;-79
2022/03/05 05:42:46;;;;;;;41.67;21.10;;;1.60;70.30;;;;;;4983533;28;20194;-79
2022/03/05 05:45:16;;;;;;;36.78;21.17;;;1.60;70.30;;;;;;4998729;28;20692;-79
2022/03/05 05:47:44;;;;;;;38.90;20.40;;;1.60;70.30;;;;;;4983473;28;20229;-79
2022/03/05 05:50:12;;;;;;;46.03;22.33;;;1.60;70.40;;;;;;4988801;28;20949;-80
2022/03/05 05:52:40;;;;;;;43.58;21.08;;;1.60;70.40;;;;;;4984341;28;20820;-80
2022/03/05 05:55:08;;;;;;;47.95;25.80;;;1.60;70.50;;;;;;4985364;28;20206;-79
2022/03/05 05:57:37;;;;;;;42.92;22.40;;;1.60;70.40;;;;;;4980937;28;20258;-79
2022/03/05 06:00:06;;;;;;;48.47;24.67;;;1.60;70.40;;;;;;4984473;28;20777;-79
2022/03/05 06:02:40;;;;;;;50.33;23.33;;;1.60;70.40;;;;;;4982760;28;20229;-80
2022/03/05 06:05:09;;;;;;;44.85;23.63;;;1.60;70.40;;;;;;4984914;28;20746;-78
2022/03/05 06:07:38;;;;;;;50.08;23.05;;;1.60;70.40;;;;;;4984190;28;20695;-79
2022/03/05 06:10:07;;;;;;;43.15;21.55;;;1.60;70.40;;;;;;4984416;28;20218;-79
2022/03/05 06:12:35;;;;;;;48.35;22.52;;;1.60;70.30;;;;;;4995860;28;20571;-80
2022/03/05 06:15:03;;;;;;;44.03;21.23;;;1.50;70.40;;;;;;4985179;28;20219;-79
2022/03/05 06:17:31;;;;;;;65.75;31.65;;;1.50;70.40;;;;;;4999640;28;20234;-79
2022/03/05 06:20:01;;;;;;;87.07;39.08;;;1.50;70.50;;;;;;4999725;28;20207;-79
2022/03/05 06:22:29;;;;;;;77.68;34.67;;;1.50;70.50;;;;;;4985008;28;20218;-79
2022/03/05 06:24:57;;;;;;;51.95;25.75;;;1.50;70.40;;;;;;4999616;28;20490;-79
2022/03/05 06:27:26;;;;;;;53.45;24.85;;;1.40;70.40;;;;;;4984959;28;20214;-79
2022/03/05 06:29:54;;;;;;;49.47;24.17;;;1.40;70.60;;;;;;4984343;28;20234;-79
2022/03/05 06:32:22;;;;;;;46.72;22.30;;;1.40;70.70;;;;;;4982163;28;20872;-79
2022/03/05 06:34:54;;;;;;;45.33;23.17;;;1.50;70.70;;;;;;4984222;28;20198;-78
2022/03/05 06:37:24;;;;;;;46.05;20.45;;;1.50;70.70;;;;;;4989380;28;20221;-78
2022/03/05 06:39:52;;;;;;;43.83;21.60;;;1.50;70.70;;;;;;5004047;28;20226;-79
2022/03/05 06:42:20;;;;;;;40.78;20.95;;;1.50;70.60;;;;;;4999135;28;20210;-78
2022/03/05 06:44:48;;;;;;;51.78;23.13;;;1.50;70.60;;;;;;4987995;28;20266;-78
2022/03/05 06:47:16;;;;;;;50.85;23.88;;;1.40;70.70;;;;;;4999284;28;20289;-80
2022/03/05 06:49:43;;;;;;;41.17;20.15;;;1.40;70.60;;;;;;4998633;28;20273;-79
2022/03/05 06:52:11;;;;;;;44.35;23.30;;;1.40;70.60;;;;;;4999811;28;20781;-80
2022/03/05 06:54:41;;;;;;;45.15;22.63;;;1.40;70.60;;;;;;4984114;28;20207;-80
2022/03/05 06:57:09;;;;;;;46.50;20.92;;;1.40;70.60;;;;;;4981448;28;20281;-80
2022/03/05 06:59:37;;;;;;;42.40;22.05;;;1.40;70.70;;;;;;4988854;28;20222;-80
2022/03/05 07:02:06;;;;;;;41.40;21.88;;;1.40;70.60;;;;;;4988128;28;20233;-80
2022/03/05 07:04:34;;;;;;;48.13;24.52;;;1.40;70.70;;;;;;4992480;28;20241;-80
2022/03/05 07:07:03;;;;;;;54.53;26.15;;;1.30;70.70;;;;;;4990868;28;20284;-80
2022/03/05 07:09:31;;;;;;;54.88;25.83;;;1.30;70.70;;;;;;4990479;28;20226;-80
2022/03/05 07:12:00;;;;;;;54.72;24.98;;;1.40;70.70;;;;;;4992094;28;20219;-79
2022/03/05 07:14:28;;;;;;;48.08;21.58;;;1.40;70.70;;;;;;4989041;28;20202;-79
2022/03/05 07:16:57;;;;;;;54.55;23.60;;;1.40;70.80;;;;;;5000597;28;20233;-79
2022/03/05 07:19:25;;;;;;;48.67;23.50;;;1.40;70.70;;;;;;4995250;28;20230;-79
2022/03/05 07:21:53;;;;;;;43.38;21.95;;;1.40;70.60;;;;;;4987499;28;20888;-79
2022/03/05 07:24:21;;;;;;;49.00;24.73;;;1.30;70.60;;;;;;4987029;28;20257;-80
2022/03/05 07:26:48;;;;;;;52.53;26.23;;;1.30;70.60;;;;;;4985668;28;20213;-79
2022/03/05 07:29:18;;;;;;;44.47;24.63;;;1.30;70.70;;;;;;5002879;28;20227;-80
2022/03/05 07:31:47;;;;;;;53.28;29.10;;;1.30;70.80;;;;;;4985625;28;20234;-79
2022/03/05 07:34:15;;;;;;;56.90;30.98;;;1.30;71.00;;;;;;4986377;28;20199;-79
2022/03/05 07:36:43;;;;;;;55.95;28.70;;;1.40;71.00;;;;;;5002588;28;20206;-79
2022/03/05 07:39:11;;;;;;;52.28;28.42;;;1.40;71.10;;;;;;5002508;28;20237;-79
2022/03/05 07:41:40;;;;;;;49.10;25.80;;;1.40;71.10;;;;;;4986989;28;20214;-79
2022/03/05 07:44:10;;;;;;;54.13;28.13;;;1.50;71.20;;;;;;5001549;28;20678;-79
2022/03/05 07:46:39;;;;;;;58.50;29.35;;;1.50;71.20;;;;;;5001153;28;20281;-78
2022/03/05 07:49:08;;;;;;;73.85;31.95;;;1.60;71.30;;;;;;5002030;28;20231;-79
2022/03/05 07:51:36;;;;;;;61.50;31.20;;;1.70;71.40;;;;;;4987046;28;20201;-79
2022/03/05 07:54:05;;;;;;;89.50;40.88;;;1.70;71.40;;;;;;4985812;28;20226;-79
2022/03/05 07:56:33;;;;;;;86.00;43.40;;;1.80;71.50;;;;;;4997635;28;20235;-79
2022/03/05 07:59:01;;;;;;;54.40;28.40;;;1.90;71.50;;;;;;4986327;28;20215;-79
2022/03/05 08:01:29;;;;;;;63.28;30.02;;;1.90;71.40;;;;;;4980851;28;20230;-79
2022/03/05 08:03:58;;;;;;;45.90;23.45;;;1.90;71.50;;;;;;4984198;28;20640;-79
2022/03/05 08:06:27;;;;;;;68.13;27.20;;;1.90;71.40;;;;;;4985830;28;20210;-79
2022/03/05 08:08:57;;;;;;;49.00;25.17;;;1.90;71.20;;;;;;4986253;28;20226;-78
2022/03/05 08:11:27;;;;;;;76.38;36.60;;;1.90;71.40;;;;;;4985911;28;20210;-79
2022/03/05 08:13:55;;;;;;;82.95;46.15;;;1.90;71.70;;;;;;4984277;28;20214;-79
2022/03/05 08:16:23;;;;;;;50.95;27.85;;;1.90;71.70;;;;;;4987236;28;20231;-79
2022/03/05 08:18:52;;;;;;;48.58;26.40;;;1.90;71.80;;;;;;4993121;28;20277;-79
2022/03/05 08:21:27;;;;;;;47.85;25.40;;;1.90;71.90;;;;;;4999125;28;20191;-79
2022/03/05 08:23:56;;;;;;;49.10;25.27;;;1.90;71.90;;;;;;4983479;28;20727;-79
2022/03/05 08:26:24;;;;;;;53.78;27.77;;;2.00;72.00;;;;;;4986247;28;20191;-79
2022/03/05 08:28:53;;;;;;;49.60;25.25;;;2.00;72.20;;;;;;4990265;28;20307;-79
2022/03/05 08:31:21;;;;;;;48.63;24.77;;;2.10;72.30;;;;;;4981913;28;20242;-79
2022/03/05 08:33:49;;;;;;;45.25;22.45;;;2.10;72.40;;;;;;4998717;28;20269;-80
2022/03/05 08:36:17;;;;;;;44.10;23.15;;;2.10;72.40;;;;;;4983418;28;20253;-78
2022/03/05 08:38:46;;;;;;;44.67;25.02;;;2.20;72.50;;;;;;5000272;28;20230;-79
2022/03/05 08:41:14;;;;;;;40.53;24.10;;;2.20;72.60;;;;;;4985092;28;20195;-79
2022/03/05 08:43:43;;;;;;;50.00;26.30;;;2.30;72.60;;;;;;4983874;28;20206;-79
2022/03/05 08:46:11;;;;;;;49.97;25.33;;;2.30;72.60;;;;;;4984368;28;20222;-79
2022/03/05 08:48:40;;;;;;;51.17;27.73;;;2.30;72.60;;;;;;4985494;28;20734;-79
2022/03/05 08:51:08;;;;;;;48.35;26.50;;;2.40;72.80;;;;;;4986201;28;20221;-81
2022/03/05 08:53:36;;;;;;;45.22;25.60;;;2.40;72.80;;;;;;4986821;28;20199;-81
2022/03/05 08:56:05;;;;;;;39.40;22.88;;;2.40;73.00;;;;;;5001709;28;20205;-82
2022/03/05 08:58:33;;;;;;;48.28;25.83;;;2.50;73.20;;;;;;4992652;28;20931;-81
2022/03/05 09:01:01;;;;;;;51.42;27.20;;;2.50;73.00;;;;;;4995554;28;20391;-81
2022/03/05 09:03:29;;;;;;;44.33;25.33;;;2.60;73.00;;;;;;4983041;28;20215;-81
2022/03/05 09:05:58;;;;;;;44.95;26.52;;;2.60;73.00;;;;;;4983521;28;20256;-80
2022/03/05 09:08:25;;;;;;;54.33;27.75;;;2.70;73.20;;;;;;4999337;28;20230;-81
2022/03/05 09:10:53;;;;;;;43.70;24.63;;;2.70;73.10;;;;;;4991373;28;20230;-80
2022/03/05 09:13:23;;;;;;;40.78;22.45;;;2.70;73.20;;;;;;4999002;28;20199;-82
2022/03/05 09:15:51;;;;;;;36.97;21.40;;;2.80;73.20;;;;;;4983441;28;20260;-82
2022/03/05 09:18:19;;;;;;;48.30;23.65;;;2.80;73.10;;;;;;5000013;28;20226;-82
2022/03/05 09:20:47;;;;;;;41.35;21.92;;;2.90;73.10;;;;;;4985224;28;20191;-83
2022/03/05 09:23:16;;;;;;;40.38;23.08;;;2.90;73.20;;;;;;4984392;28;20305;-82
2022/03/05 09:25:44;;;;;;;42.22;23.65;;;3.00;73.20;;;;;;4997790;28;20304;-83
2022/03/05 09:28:12;;;;;;;43.00;23.55;;;3.00;73.20;;;;;;4983950;28;20238;-83
2022/03/05 09:30:41;;;;;;;39.63;23.92;;;3.00;73.20;;;;;;4997446;28;20235;-83
2022/03/05 09:33:11;;;;;;;43.00;22.85;;;3.10;73.30;;;;;;4983840;28;20202;-82
2022/03/05 09:35:39;;;;;;;36.22;20.75;;;3.10;73.20;;;;;;4985006;28;20281;-81
2022/03/05 09:38:07;;;;;;;39.45;20.60;;;3.20;73.20;;;;;;4983972;28;20235;-81
2022/03/05 09:40:35;;;;;;;41.42;21.67;;;3.20;73.20;;;;;;5000454;28;20210;-83
2022/03/05 09:43:03;;;;;;;40.75;22.05;;;3.20;73.40;;;;;;4984017;28;20206;-81
2022/03/05 09:45:31;;;;;;;42.75;22.60;;;3.30;73.30;;;;;;4984436;28;20241;-82
2022/03/05 09:48:01;;;;;;;40.53;21.55;;;3.30;73.30;;;;;;4983952;28;20223;-81
2022/03/05 09:50:29;;;;;;;46.08;22.90;;;3.40;73.40;;;;;;4983365;28;20207;-82
2022/03/05 09:52:57;;;;;;;41.20;21.98;;;3.40;73.40;;;;;;4983577;28;20209;-81
2022/03/05 09:55:25;;;;;;;38.90;21.92;;;3.40;73.40;;;;;;4985037;28;20217;-80
2022/03/05 09:57:53;;;;;;;35.75;20.90;;;3.50;73.40;;;;;;4989030;28;20266;-83
2022/03/05 10:00:21;;;;;;;39.65;21.88;;;3.50;73.30;;;;;;5004427;28;20207;-87
2022/03/05 10:02:53;;;;;;;40.22;23.33;;;3.60;73.40;;;;;;5001625;28;20228;-85
2022/03/05 10:05:26;;;;;;;42.05;22.92;;;3.60;73.40;;;;;;4998913;28;20276;-84
2022/03/05 10:08:09;;;;;;;37.90;22.40;;;3.70;73.30;;;;;;4984676;28;20230;-84
2022/03/05 10:10:44;;;;;;;42.40;23.17;;;3.70;73.30;;;;;;4982422;28;20221;-84
2022/03/05 10:13:28;;;;;;;36.25;21.95;;;3.80;73.20;;;;;;4982789;28;20202;-83
2022/03/05 10:15:59;;;;;;;38.40;20.92;;;3.80;73.20;;;;;;4982492;28;20862;-82
2022/03/05 10:18:29;;;;;;;37.22;21.08;;;3.90;73.20;;;;;;4983983;28;20317;-84
2022/03/05 10:21:00;;;;;;;40.15;22.10;;;4.00;73.10;;;;;;4983377;28;20754;-83
2022/03/05 10:23:30;;;;;;;40.83;20.83;;;4.00;72.80;;;;;;4983149;28;20202;-84
2022/03/05 10:25:58;;;;;;;36.65;20.55;;;4.00;73.00;;;;;;4984202;28;20198;-84
2022/03/05 10:28:27;;;;;;;33.20;19.65;;;4.10;73.00;;;;;;5001240;28;20226;-84
2022/03/05 10:30:58;;;;;;;31.58;17.35;;;4.10;73.00;;;;;;5000257;28;20234;-83
2022/03/05 10:33:29;;;;;;;29.88;17.23;;;4.10;72.70;;;;;;5002895;28;20871;-83
2022/03/05 10:36:00;;;;;;;32.35;19.48;;;4.20;72.60;;;;;;4996113;28;20748;-84
2022/03/05 10:38:47;;;;;;;35.78;21.40;;;4.20;72.50;;;;;;4989957;28;20643;-84
2022/03/05 10:41:17;;;;;;;35.30;20.30;;;4.30;72.50;;;;;;5005246;28;20206;-84
2022/03/05 10:43:47;;;;;;;34.03;19.85;;;4.30;72.40;;;;;;4988763;28;20213;-84
2022/03/05 10:46:15;;;;;;;33.20;18.23;;;4.40;72.30;;;;;;4988432;28;20256;-85
2022/03/05 10:48:45;;;;;;;27.85;17.42;;;4.40;72.20;;;;;;5001856;28;20234;-83
2022/03/05 10:51:16;;;;;;;32.42;19.13;;;4.50;72.10;;;;;;4984466;28;20222;-82
2022/03/05 10:53:47;;;;;;;35.58;20.05;;;4.50;71.80;;;;;;4986319;28;20203;-84
2022/03/05 10:56:39;;;;;;;26.42;15.05;;;4.50;71.90;;;;;;4984269;28;20206;-83
2022/03/05 10:59:12;;;;;;;30.23;16.60;;;4.60;71.30;;;;;;4983768;28;20230;-84
2022/03/05 11:01:43;;;;;;;30.65;17.80;;;4.70;71.70;;;;;;4981072;28;20775;-84
2022/03/05 11:04:12;;;;;;;26.35;15.40;;;4.70;71.40;;;;;;4997894;28;20853;-84
2022/03/05 11:06:43;;;;;;;27.40;15.55;;;4.70;70.90;;;;;;4979124;28;20210;-83
2022/03/05 11:09:13;;;;;;;30.90;18.27;;;4.80;71.20;;;;;;4993885;28;20241;-84
2022/03/05 11:11:43;;;;;;;28.23;15.63;;;4.80;70.40;;;;;;4984164;28;20214;-84
2022/03/05 11:14:16;;;;;;;26.50;14.95;;;4.80;70.70;;;;;;4977512;28;20206;-84
2022/03/05 11:16:45;;;;;;;23.80;14.65;;;4.90;70.70;;;;;;4983719;28;20234;-83
2022/03/05 11:19:14;;;;;;;29.13;15.52;;;4.90;70.70;;;;;;4980993;28;20233;-84
2022/03/05 11:21:44;;;;;;;23.17;15.00;;;4.90;70.50;;;;;;4995778;28;20209;-84
2022/03/05 11:24:14;;;;;;;22.98;14.70;;;5.00;70.40;;;;;;4979151;28;20211;-83
2022/03/05 11:26:47;;;;;;;20.52;12.80;;;5.00;70.20;;;;;;4977061;28;20215;-83
2022/03/05 11:29:30;;;;;;;20.77;12.95;;;5.10;69.60;;;;;;4982846;28;20231;-83
2022/03/05 11:32:12;;;;;;;20.55;12.25;;;5.10;69.70;;;;;;4998954;28;20234;-83
2022/03/05 11:34:45;;;;;;;16.70;10.32;;;5.10;68.70;;;;;;4995784;28;20206;-81
2022/03/05 11:37:24;;;;;;;21.85;11.40;;;5.20;68.90;;;;;;4998018;28;20214;-81
2022/03/05 11:39:53;;;;;;;36.35;17.67;;;5.20;68.70;;;;;;4980439;28;20206;-81
2022/03/05 11:42:29;;;;;;;18.45;11.32;;;5.30;68.70;;;;;;4995742;28;20245;-81
2022/03/05 11:44:59;;;;;;;17.58;10.20;;;5.30;68.30;;;;;;4997147;28;20210;-80
2022/03/05 11:47:32;;;;;;;14.65;8.10;;;5.40;68.20;;;;;;4984818;28;20236;-81
2022/03/05 11:50:16;;;;;;;15.07;8.30;;;5.40;67.50;;;;;;5001709;28;20206;-81
2022/03/05 11:53:08;;;;;;;14.90;9.10;;;5.50;67.00;;;;;;4996975;28;20233;-82
2022/03/05 11:55:41;;;;;;;28.90;15.38;;;5.50;67.00;;;;;;4978641;28;20214;-81
2022/03/05 11:58:31;;;;;;;39.70;23.38;;;5.60;66.50;;;;;;4980271;28;20254;-81
2022/03/05 12:00:59;;;;;;;21.90;13.30;;;5.60;66.60;;;;;;4985246;28;20326;-80
2022/03/05 12:03:39;;;;;;;16.90;10.30;;;5.60;66.10;;;;;;5000757;28;20665;-81
2022/03/05 12:06:07;;;;;;;17.60;10.07;;;5.70;65.60;;;;;;4985178;28;20213;-80
2022/03/05 12:08:53;;;;;;;21.75;10.48;;;5.70;65.40;;;;;;4984090;28;20226;-80
2022/03/05 12:11:22;;;;;;;18.83;11.18;;;5.70;65.40;;;;;;5001333;28;20214;-83
2022/03/05 12:13:55;;;;;;;14.27;8.88;;;5.70;65.10;;;;;;4984989;28;20602;-83
2022/03/05 12:16:25;;;;;;;14.77;9.35;;;5.70;64.00;;;;;;5000281;28;20308;-83
2022/03/05 12:18:54;;;;;;;11.80;7.65;;;5.70;64.00;;;;;;5002859;28;20234;-83
2022/03/05 12:21:26;;;;;;;13.48;7.60;;;5.70;63.70;;;;;;4998963;28;20203;-83
2022/03/05 12:24:00;;;;;;;12.60;8.50;;;5.70;63.30;;;;;;5000393;28;20207;-83
2022/03/05 12:26:36;;;;;;;14.60;8.93;;;5.70;63.50;;;;;;5001564;28;20203;-83
2022/03/05 12:29:05;;;;;;;18.70;12.18;;;5.70;63.10;;;;;;4983913;28;20337;-83
2022/03/05 12:31:33;;;;;;;17.38;10.30;;;5.80;63.40;;;;;;4985191;28;20234;-83
2022/03/05 12:34:01;;;;;;;29.27;16.17;;;5.80;62.80;;;;;;4983937;28;20229;-84
2022/03/05 12:36:29;;;;;;;25.00;14.20;;;5.80;62.30;;;;;;4986529;28;20202;-83
2022/03/05 12:38:59;;;;;;;17.83;10.75;;;5.90;62.20;;;;;;4992064;28;20309;-84
2022/03/05 12:41:29;;;;;;;19.08;11.57;;;5.90;62.10;;;;;;5001610;28;20872;-83
2022/03/05 12:43:58;;;;;;;18.65;11.30;;;5.90;62.50;;;;;;4989088;28;20198;-83
2022/03/05 12:46:26;;;;;;;17.45;11.45;;;5.90;62.30;;;;;;4984363;28;20222;-83
2022/03/05 12:49:03;;;;;;;16.83;11.10;;;5.90;62.30;;;;;;5000367;28;20329;-83
2022/03/05 12:51:32;;;;;;;16.40;10.48;;;5.90;61.80;;;;;;4986093;28;20195;-82